createdAt,value
2023-11-19T00:02:15.463Z,25.63
2023-11-19T00:04:42.881Z,26.73
2023-11-19T00:07:13.497Z,26.37
2023-11-19T00:09:40.761Z,26.47
2023-11-19T00:12:08.739Z,25.40
2023-11-19T00:14:39.523Z,25.90
2023-11-19T00:17:06.719Z,25.17
2023-11-19T00:19:34.399Z,23.23
2023-11-19T00:22:04.826Z,24.13
2023-11-19T00:24:33.162Z,25.93
2023-11-19T00:27:00.432Z,24.87
2023-11-19T00:29:27.767Z,24.23
2023-11-19T00:31:55.062Z,25.13
2023-11-19T00:34:23.982Z,25.33
2023-11-19T00:36:51.157Z,25.73
2023-11-19T00:39:19.224Z,24.83
2023-11-19T00:41:47.371Z,25.17
2023-11-19T00:44:14.554Z,26.67
2023-11-19T00:46:42.289Z,25.77
2023-11-19T00:49:09.492Z,26.37
2023-11-19T00:51:36.712Z,25.13
2023-11-19T00:54:04.005Z,26.50
2023-11-19T00:56:31.184Z,24.87
2023-11-19T00:58:58.341Z,24.50
2023-11-19T01:01:26.610Z,24.67
2023-11-19T01:03:54.128Z,26.10
2023-11-19T01:06:32.473Z,24.63
2023-11-19T01:08:59.842Z,26.10
2023-11-19T01:11:27.497Z,24.40
2023-11-19T01:13:54.676Z,24.17
2023-11-19T01:16:22.588Z,25.00
2023-11-19T01:18:49.892Z,25.67
2023-11-19T01:21:17.302Z,23.50
2023-11-19T01:23:44.861Z,25.17
2023-11-19T01:26:13.394Z,24.23
2023-11-19T01:28:52.098Z,25.43
2023-11-19T01:31:19.738Z,24.13
2023-11-19T01:33:47.696Z,24.90
2023-11-19T01:36:15.561Z,25.27
2023-11-19T01:38:42.882Z,25.40
2023-11-19T01:41:10.460Z,24.17
2023-11-19T01:43:44.439Z,24.60
2023-11-19T01:46:12.325Z,24.83
2023-11-19T01:48:42.794Z,24.97
2023-11-19T01:51:10.546Z,24.17
2023-11-19T01:53:38.757Z,25.10
2023-11-19T01:56:06.581Z,24.90
2023-11-19T01:58:33.766Z,25.53
2023-11-19T02:01:01.206Z,23.70
2023-11-19T02:03:30.688Z,24.07
2023-11-19T02:05:58.923Z,25.30
2023-11-19T02:08:26.384Z,25.73
2023-11-19T02:10:53.893Z,23.83
2023-11-19T02:13:21.129Z,24.13
2023-11-19T02:15:48.519Z,23.70
2023-11-19T02:18:23.203Z,24.77
2023-11-19T02:20:51.359Z,24.83
2023-11-19T02:23:19.590Z,25.47
2023-11-19T02:26:03.735Z,25.77
2023-11-19T02:28:31.083Z,24.17
2023-11-19T02:30:58.396Z,26.27
2023-11-19T02:33:26.007Z,25.53
2023-11-19T02:35:53.477Z,23.90
2023-11-19T02:38:23.017Z,24.43
2023-11-19T02:40:50.582Z,26.33
2023-11-19T02:43:18.031Z,26.30
2023-11-19T02:45:47.172Z,26.77
2023-11-19T02:48:16.685Z,26.60
2023-11-19T02:50:44.223Z,24.63
2023-11-19T02:53:11.760Z,24.67
2023-11-19T02:55:40.551Z,25.00
2023-11-19T02:58:13.185Z,25.73
2023-11-19T03:00:48.872Z,24.93
2023-11-19T03:03:22.008Z,25.30
2023-11-19T03:05:49.664Z,25.93
2023-11-19T03:10:48.962Z,24.43
2023-11-19T03:13:16.639Z,24.30
2023-11-19T03:15:43.832Z,25.57
2023-11-19T03:18:11.020Z,25.47
2023-11-19T03:20:38.282Z,25.70
2023-11-19T03:23:05.480Z,25.40
2023-11-19T03:25:37.358Z,25.70
2023-11-19T03:28:05.150Z,27.03
2023-11-19T03:30:34.865Z,26.47
2023-11-19T03:33:03.070Z,26.23
2023-11-19T03:35:30.588Z,25.43
2023-11-19T03:37:57.793Z,26.77
2023-11-19T03:40:26.363Z,26.03
2023-11-19T03:42:53.856Z,26.53
2023-11-19T03:45:21.111Z,26.37
2023-11-19T03:47:48.295Z,24.93
2023-11-19T03:50:17.006Z,26.10
2023-11-19T03:52:44.963Z,24.90
2023-11-19T03:55:13.608Z,24.97
2023-11-19T03:57:41.039Z,25.37
2023-11-19T04:00:11.873Z,24.40
2023-11-19T04:02:39.348Z,25.90
2023-11-19T04:05:07.745Z,26.30
2023-11-19T04:07:35.399Z,24.67
2023-11-19T04:10:03.188Z,25.60
2023-11-19T04:12:30.604Z,26.07
2023-11-19T04:17:28.324Z,26.90
2023-11-19T04:19:55.597Z,26.53
2023-11-19T04:22:22.837Z,26.37
2023-11-19T04:24:50.254Z,24.37
2023-11-19T04:27:17.487Z,25.43
2023-11-19T04:29:44.723Z,26.23
2023-11-19T04:32:12.517Z,25.83
2023-11-19T04:34:39.847Z,24.63
2023-11-19T04:39:38.393Z,24.87
2023-11-19T04:42:06.287Z,23.60
2023-11-19T04:44:33.480Z,24.17
2023-11-19T04:47:00.915Z,24.07
2023-11-19T04:49:28.799Z,22.90
2023-11-19T04:51:56.150Z,25.53
2023-11-19T04:54:24.279Z,24.13
2023-11-19T04:56:52.414Z,22.63
2023-11-19T04:59:19.627Z,23.10
2023-11-19T05:01:49.685Z,23.07
2023-11-19T05:04:17.177Z,22.77
2023-11-19T05:06:44.569Z,21.93
2023-11-19T05:09:14.530Z,21.50
2023-11-19T05:14:12.022Z,21.97
2023-11-19T05:16:41.628Z,21.47
2023-11-19T05:19:10.074Z,22.33
2023-11-19T05:21:37.325Z,22.00
2023-11-19T05:24:08.077Z,20.13
2023-11-19T05:26:35.332Z,22.13
2023-11-19T05:29:02.494Z,19.87
2023-11-19T05:31:30.235Z,20.93
2023-11-19T05:33:58.125Z,20.17
2023-11-19T05:36:25.321Z,19.90
2023-11-19T05:38:52.496Z,19.33
2023-11-19T05:41:19.675Z,19.73
2023-11-19T05:46:22.905Z,18.77
2023-11-19T05:48:50.276Z,18.70
2023-11-19T05:51:17.705Z,19.73
2023-11-19T05:53:46.710Z,20.10
2023-11-19T05:56:14.877Z,17.77
2023-11-19T05:58:42.039Z,18.13
2023-11-19T06:01:09.652Z,19.80
2023-11-19T06:03:38.239Z,18.23
2023-11-19T06:06:06.364Z,18.13
2023-11-19T06:08:34.332Z,18.47
2023-11-19T06:11:02.752Z,17.80
2023-11-19T06:13:32.485Z,18.20
2023-11-19T06:16:00.184Z,17.80
2023-11-19T06:18:28.789Z,19.17
2023-11-19T06:20:56.122Z,18.30
2023-11-19T06:23:23.262Z,17.50
2023-11-19T06:25:50.533Z,16.67
2023-11-19T06:28:17.750Z,16.40
2023-11-19T06:30:47.288Z,17.40
2023-11-19T06:33:16.095Z,17.97
2023-11-19T06:35:43.618Z,18.20
2023-11-19T06:38:10.914Z,17.63
2023-11-19T06:40:38.131Z,16.57
2023-11-19T06:43:06.276Z,17.00
2023-11-19T06:45:33.961Z,17.23
2023-11-19T06:48:05.762Z,18.80
2023-11-19T06:50:33.860Z,17.50
2023-11-19T06:53:01.309Z,20.00
2023-11-19T06:55:28.727Z,21.67
2023-11-19T06:57:56.190Z,23.87
2023-11-19T07:00:23.824Z,21.70
2023-11-19T07:02:52.602Z,20.90
2023-11-19T07:05:20.142Z,17.77
2023-11-19T07:07:48.132Z,18.67
2023-11-19T07:10:16.869Z,18.77
2023-11-19T07:12:44.166Z,18.17
2023-11-19T07:15:11.648Z,18.63
2023-11-19T07:17:41.426Z,18.63
2023-11-19T07:20:09.011Z,21.90
2023-11-19T07:22:36.317Z,25.27
2023-11-19T07:25:03.495Z,22.23
2023-11-19T07:27:30.617Z,20.20
2023-11-19T07:29:59.016Z,20.50
2023-11-19T07:32:26.279Z,19.37
2023-11-19T07:34:53.495Z,19.60
2023-11-19T07:37:20.642Z,20.83
2023-11-19T07:39:47.802Z,21.33
2023-11-19T07:42:15.253Z,20.03
2023-11-19T07:44:42.745Z,19.97
2023-11-19T07:47:10.050Z,20.50
2023-11-19T07:49:37.400Z,18.67
2023-11-19T07:52:04.744Z,17.47
2023-11-19T07:54:31.888Z,17.00
2023-11-19T07:56:59.095Z,17.37
2023-11-19T07:59:26.320Z,17.03
2023-11-19T08:01:53.497Z,17.93
2023-11-19T08:04:20.713Z,16.73
2023-11-19T08:06:47.988Z,18.40
2023-11-19T08:09:15.541Z,17.90
2023-11-19T08:11:43.490Z,19.70
2023-11-19T08:14:11.185Z,17.90
2023-11-19T08:16:38.946Z,17.97
2023-11-19T08:19:06.269Z,18.33
2023-11-19T08:21:33.538Z,17.60
2023-11-19T08:24:00.777Z,16.90
2023-11-19T08:26:27.971Z,18.27
2023-11-19T08:28:55.233Z,18.20
2023-11-19T08:31:22.411Z,16.73
2023-11-19T08:33:49.659Z,18.90
2023-11-19T08:36:17.993Z,17.30
2023-11-19T08:38:45.399Z,16.03
2023-11-19T08:41:12.746Z,18.30
2023-11-19T08:43:40.300Z,16.47
2023-11-19T08:46:16.662Z,16.57
2023-11-19T08:48:44.014Z,17.23
2023-11-19T08:51:11.457Z,18.07
2023-11-19T08:53:39.180Z,18.67
2023-11-19T08:56:07.012Z,17.87
2023-11-19T08:58:34.434Z,18.10
2023-11-19T09:01:01.938Z,17.10
2023-11-19T09:03:31.471Z,16.33
2023-11-19T09:05:58.871Z,18.07
2023-11-19T09:08:26.084Z,18.13
2023-11-19T09:10:53.339Z,16.80
2023-11-19T09:13:20.549Z,16.83
2023-11-19T09:15:47.865Z,17.60
2023-11-19T09:18:15.143Z,19.13
2023-11-19T09:20:42.651Z,15.83
2023-11-19T09:23:10.640Z,16.90
2023-11-19T09:28:09.972Z,14.90
2023-11-19T09:30:37.353Z,16.13
2023-11-19T09:33:04.766Z,15.83
2023-11-19T09:35:32.248Z,15.37
2023-11-19T09:38:01.022Z,14.57
2023-11-19T09:40:29.692Z,13.53
2023-11-19T09:42:57.011Z,15.07
2023-11-19T09:45:27.147Z,14.77
2023-11-19T09:47:54.756Z,17.37
2023-11-19T09:50:22.313Z,15.43
2023-11-19T09:52:49.926Z,14.50
2023-11-19T09:55:17.216Z,14.30
2023-11-19T09:57:45.340Z,14.03
2023-11-19T10:00:14.468Z,14.33
2023-11-19T10:02:42.076Z,13.07
2023-11-19T10:05:09.594Z,15.90
2023-11-19T10:07:39.420Z,15.27
2023-11-19T10:10:07.046Z,14.13
2023-11-19T10:12:34.263Z,13.50
2023-11-19T10:15:01.663Z,15.43
2023-11-19T10:17:34.948Z,14.03
2023-11-19T10:20:03.466Z,13.87
2023-11-19T10:22:30.626Z,13.73
2023-11-19T10:24:57.891Z,13.13
2023-11-19T10:27:27.925Z,14.07
2023-11-19T10:29:55.215Z,14.70
2023-11-19T10:32:25.947Z,14.43
2023-11-19T10:35:07.500Z,13.57
2023-11-19T10:37:36.881Z,14.17
2023-11-19T10:40:06.554Z,12.63
2023-11-19T10:42:33.816Z,14.37
2023-11-19T10:45:01.264Z,19.30
2023-11-19T10:50:00.452Z,15.00
2023-11-19T10:52:29.032Z,15.30
2023-11-19T10:54:58.609Z,17.80
2023-11-19T10:57:27.878Z,17.17
2023-11-19T10:59:57.421Z,14.07
2023-11-19T11:02:26.520Z,14.73
2023-11-19T11:04:53.820Z,13.77
2023-11-19T11:10:57.469Z,14.20
2023-11-19T11:13:28.689Z,16.37
2023-11-19T11:16:03.724Z,20.57
2023-11-19T11:18:37.588Z,18.87
2023-11-19T11:21:09.388Z,16.33
2023-11-19T11:23:55.699Z,18.07
2023-11-19T11:26:41.937Z,16.53
2023-11-19T11:29:22.333Z,18.30
2023-11-19T11:31:50.374Z,16.97
2023-11-19T11:34:42.905Z,18.07
2023-11-19T11:37:14.859Z,18.03
2023-11-19T11:39:42.461Z,18.87
2023-11-19T11:42:18.771Z,22.00
2023-11-19T11:45:10.972Z,17.43
2023-11-19T11:47:45.108Z,18.47
2023-11-19T11:50:16.614Z,18.93
2023-11-19T11:52:59.140Z,19.60
2023-11-19T11:55:26.398Z,18.03
2023-11-19T11:57:53.918Z,18.07
2023-11-19T12:00:25.110Z,18.53
2023-11-19T12:02:52.744Z,18.10
2023-11-19T12:05:20.132Z,20.73
2023-11-19T12:08:03.330Z,21.23
2023-11-19T12:10:39.988Z,20.40
2023-11-19T12:13:08.447Z,19.80
2023-11-19T12:18:56.688Z,19.27
2023-11-19T12:21:34.220Z,20.10
2023-11-19T12:24:09.226Z,19.40
2023-11-19T12:26:37.320Z,20.57
2023-11-19T12:29:08.308Z,23.60
2023-11-19T12:31:37.247Z,22.57
2023-11-19T12:34:08.192Z,20.93
2023-11-19T12:36:36.210Z,20.50
2023-11-19T12:39:04.073Z,17.40
2023-11-19T12:41:31.619Z,18.93
2023-11-19T12:44:19.225Z,19.67
2023-11-19T12:46:46.484Z,21.37
2023-11-19T12:49:13.887Z,22.67
2023-11-19T12:51:41.090Z,20.40
2023-11-19T12:54:08.550Z,21.43
2023-11-19T12:56:37.671Z,22.97
2023-11-19T12:59:14.508Z,26.37
2023-11-19T13:01:43.614Z,25.63
2023-11-19T13:04:20.646Z,24.53
2023-11-19T13:09:30.338Z,20.53
2023-11-19T13:11:57.859Z,21.00
2023-11-19T13:14:25.223Z,20.80
2023-11-19T13:16:55.066Z,23.07
2023-11-19T13:19:24.675Z,23.77
2023-11-19T13:21:52.014Z,22.73
2023-11-19T13:24:19.203Z,22.13
2023-11-19T13:26:47.190Z,23.67
2023-11-19T13:29:17.506Z,19.73
2023-11-19T13:31:47.630Z,21.17
2023-11-19T13:34:15.540Z,22.37
2023-11-19T13:36:43.385Z,20.87
2023-11-19T13:39:10.981Z,22.13
2023-11-19T13:41:38.347Z,24.57
2023-11-19T13:44:05.682Z,25.77
2023-11-19T13:46:32.893Z,25.57
2023-11-19T13:49:00.075Z,22.97
2023-11-19T13:51:27.258Z,22.23
2023-11-19T13:53:55.291Z,22.80
2023-11-19T13:56:22.649Z,22.83
2023-11-19T13:58:49.799Z,25.07
2023-11-19T14:01:17.020Z,23.23
2023-11-19T14:03:44.533Z,24.17
2023-11-19T14:06:11.827Z,26.10
2023-11-19T14:08:39.336Z,24.70
2023-11-19T14:11:08.022Z,27.23
2023-11-19T14:13:35.831Z,25.47
2023-11-19T14:16:03.317Z,25.30
2023-11-19T14:18:30.988Z,28.57
2023-11-19T14:20:59.411Z,28.60
2023-11-19T14:23:28.774Z,28.90
2023-11-19T14:25:56.402Z,29.77
2023-11-19T14:28:23.887Z,28.47
2023-11-19T14:30:54.983Z,30.60
2023-11-19T14:33:22.342Z,33.50
2023-11-19T14:35:49.938Z,35.23
2023-11-19T14:38:17.171Z,35.87
2023-11-19T14:40:44.468Z,36.03
2023-11-19T14:43:11.944Z,38.23
2023-11-19T14:45:45.351Z,37.07
2023-11-19T14:48:17.100Z,34.43
2023-11-19T14:50:45.705Z,33.53
2023-11-19T14:53:12.897Z,35.27
2023-11-19T14:55:40.271Z,35.73
2023-11-19T14:58:10.244Z,35.63
2023-11-19T15:00:39.456Z,38.10
2023-11-19T15:03:07.963Z,37.30
2023-11-19T15:05:35.671Z,38.93
2023-11-19T15:08:04.377Z,38.83
2023-11-19T15:10:31.679Z,40.03
2023-11-19T15:12:59.295Z,43.93
2023-11-19T15:17:56.757Z,43.20
2023-11-19T15:20:24.550Z,42.07
2023-11-19T15:22:52.008Z,39.57
2023-11-19T15:25:19.170Z,37.13
2023-11-19T15:27:46.352Z,37.43
2023-11-19T15:30:13.997Z,37.80
2023-11-19T15:32:42.453Z,47.67
2023-11-19T15:35:12.888Z,125.37
2023-11-19T15:37:42.490Z,251.27
2023-11-19T15:40:10.588Z,224.33
2023-11-19T15:42:37.831Z,169.83
2023-11-19T15:45:06.333Z,151.83
2023-11-19T15:47:33.556Z,62.37
2023-11-19T15:50:01.520Z,48.90
2023-11-19T15:52:30.967Z,67.33
2023-11-19T15:54:58.589Z,94.93
2023-11-19T15:57:25.791Z,64.47
2023-11-19T15:59:53.038Z,43.57
2023-11-19T16:02:20.294Z,35.17
2023-11-19T16:04:49.108Z,28.07
2023-11-19T16:07:17.321Z,28.37
2023-11-19T16:09:45.204Z,26.17
2023-11-19T16:12:12.515Z,23.53
2023-11-19T16:14:39.798Z,24.03
2023-11-19T16:17:07.380Z,28.23
2023-11-19T16:19:35.925Z,33.77
2023-11-19T16:22:11.165Z,33.83
2023-11-19T16:24:39.061Z,28.53
2023-11-19T16:27:06.664Z,29.20
2023-11-19T16:29:33.981Z,29.03
2023-11-19T16:32:02.027Z,30.17
2023-11-19T16:34:29.526Z,25.80
2023-11-19T16:36:56.824Z,19.50
2023-11-19T16:39:24.111Z,18.43
2023-11-19T16:41:51.562Z,16.70
2023-11-19T16:44:18.864Z,18.27
2023-11-19T16:46:46.852Z,17.87
2023-11-19T16:49:14.848Z,16.50
2023-11-19T16:51:46.934Z,17.17
2023-11-19T16:54:14.625Z,17.00
2023-11-19T16:56:44.998Z,16.63
2023-11-19T16:59:12.522Z,17.23
2023-11-19T17:01:40.125Z,17.17
2023-11-19T17:04:09.045Z,18.13
2023-11-19T17:06:36.579Z,23.10
2023-11-19T17:09:04.124Z,24.70
2023-11-19T17:11:31.506Z,26.87
2023-11-19T17:13:59.014Z,26.90
2023-11-19T17:16:26.342Z,25.33
2023-11-19T17:18:53.491Z,20.70
2023-11-19T17:21:21.069Z,17.77
2023-11-19T17:23:48.258Z,17.20
2023-11-19T17:26:15.991Z,16.03
2023-11-19T17:28:43.223Z,16.87
2023-11-19T17:31:10.417Z,15.47
2023-11-19T17:33:37.710Z,17.93
2023-11-19T17:36:07.804Z,15.20
2023-11-19T17:38:35.253Z,15.50
2023-11-19T17:41:03.961Z,15.20
2023-11-19T17:43:31.467Z,14.00
2023-11-19T17:46:02.190Z,12.67
2023-11-19T17:48:30.016Z,13.17
2023-11-19T17:50:59.795Z,13.57
2023-11-19T17:53:27.416Z,11.97
2023-11-19T17:55:55.991Z,11.93
2023-11-19T17:58:23.494Z,11.97
2023-11-19T18:00:50.767Z,11.43
2023-11-19T18:03:18.860Z,12.53
2023-11-19T18:05:46.880Z,13.03
2023-11-19T18:08:14.256Z,11.87
2023-11-19T18:10:41.404Z,12.00
2023-11-19T18:13:09.411Z,11.60
2023-11-19T18:15:37.885Z,12.10
2023-11-19T18:18:05.648Z,11.97
2023-11-19T18:20:33.149Z,10.83
2023-11-19T18:23:01.900Z,10.70
2023-11-19T18:25:29.567Z,12.73
2023-11-19T18:27:56.930Z,12.40
2023-11-19T18:30:24.846Z,11.87
2023-11-19T18:32:52.368Z,12.13
2023-11-19T18:35:25.375Z,12.67
2023-11-19T18:37:53.104Z,10.37
2023-11-19T18:40:22.841Z,11.70
2023-11-19T18:42:53.037Z,10.73
2023-11-19T18:45:23.139Z,11.23
2023-11-19T18:47:54.070Z,10.93
2023-11-19T18:50:22.359Z,10.33
2023-11-19T18:52:49.976Z,10.83
2023-11-19T18:55:17.316Z,9.83
2023-11-19T18:57:45.019Z,10.13
2023-11-19T19:00:12.505Z,9.40
2023-11-19T19:02:39.963Z,9.03
2023-11-19T19:05:09.226Z,9.77
2023-11-19T19:07:36.545Z,10.03
2023-11-19T19:10:03.840Z,9.67
2023-11-19T19:12:31.088Z,10.37
2023-11-19T19:17:31.335Z,8.90
2023-11-19T19:20:00.542Z,8.83
2023-11-19T19:22:29.093Z,9.00
2023-11-19T19:24:56.882Z,8.53
2023-11-19T19:27:24.367Z,8.30
2023-11-19T19:29:51.921Z,8.87
2023-11-19T19:32:19.245Z,8.77
2023-11-19T19:34:47.077Z,7.77
2023-11-19T19:37:14.286Z,8.20
2023-11-19T19:39:41.872Z,8.93
2023-11-19T19:42:10.699Z,10.27
2023-11-19T19:44:40.316Z,8.63
2023-11-19T19:47:08.432Z,8.57
2023-11-19T19:49:35.896Z,8.60
2023-11-19T19:52:03.937Z,9.53
2023-11-19T19:54:33.167Z,8.77
2023-11-19T19:57:00.439Z,10.00
2023-11-19T19:59:28.105Z,9.00
2023-11-19T20:01:55.684Z,8.83
2023-11-19T20:04:23.001Z,8.63
2023-11-19T20:06:51.494Z,9.33
2023-11-19T20:09:18.682Z,9.03
2023-11-19T20:11:48.941Z,9.10
2023-11-19T20:14:16.251Z,9.83
2023-11-19T20:16:43.841Z,10.27
2023-11-19T20:19:11.672Z,11.73
2023-11-19T20:21:39.074Z,10.03
2023-11-19T20:24:06.637Z,11.33
2023-11-19T20:26:34.004Z,8.47
2023-11-19T20:31:32.225Z,8.83
2023-11-19T20:33:59.540Z,9.20
2023-11-19T20:36:26.905Z,8.93
2023-11-19T20:38:55.007Z,9.90
2023-11-19T20:41:22.196Z,10.70
2023-11-19T20:43:49.360Z,9.50
2023-11-19T20:46:16.585Z,8.83
2023-11-19T20:48:43.889Z,9.93
2023-11-19T20:51:11.410Z,8.53
2023-11-19T20:53:40.597Z,11.20
2023-11-19T20:56:08.110Z,10.17
2023-11-19T20:58:36.171Z,10.47
2023-11-19T21:01:07.156Z,11.27
2023-11-19T21:03:38.102Z,10.97
2023-11-19T21:06:06.044Z,10.23
2023-11-19T21:08:33.295Z,10.47
2023-11-19T21:11:00.617Z,9.27
2023-11-19T21:13:27.866Z,9.73
2023-11-19T21:15:58.987Z,10.20
2023-11-19T21:18:26.733Z,8.80
2023-11-19T21:20:54.034Z,9.27
2023-11-19T21:23:24.033Z,8.00
2023-11-19T21:25:51.467Z,7.93
2023-11-19T21:28:18.678Z,8.00
2023-11-19T21:30:46.115Z,8.33
2023-11-19T21:33:20.226Z,8.47
2023-11-19T21:35:47.818Z,7.80
2023-11-19T21:38:15.199Z,8.07
2023-11-19T21:40:42.461Z,8.77
2023-11-19T21:43:11.776Z,8.50
2023-11-19T21:45:41.071Z,7.23
2023-11-19T21:48:08.372Z,8.50
2023-11-19T21:50:35.509Z,7.77
2023-11-19T21:53:02.748Z,7.90
2023-11-19T21:55:32.484Z,7.23
2023-11-19T21:58:00.895Z,7.10
2023-11-19T22:00:28.044Z,8.10
2023-11-19T22:02:55.246Z,7.70
2023-11-19T22:05:23.375Z,6.97
2023-11-19T22:07:50.651Z,6.77
2023-11-19T22:10:18.652Z,7.57
2023-11-19T22:12:48.867Z,8.00
2023-11-19T22:15:16.109Z,7.47
2023-11-19T22:17:43.423Z,6.43
2023-11-19T22:22:42.270Z,6.27
2023-11-19T22:25:11.252Z,7.57
2023-11-19T22:27:39.214Z,8.13
2023-11-19T22:30:06.846Z,8.07
2023-11-19T22:32:34.958Z,7.83
2023-11-19T22:35:02.536Z,6.90
2023-11-19T22:37:29.852Z,7.70
2023-11-19T22:39:57.457Z,6.80
2023-11-19T22:42:24.884Z,7.60
2023-11-19T22:44:52.163Z,6.63
2023-11-19T22:47:19.339Z,6.30
2023-11-19T22:49:46.525Z,7.20
2023-11-19T22:52:13.757Z,7.03
2023-11-19T22:54:41.090Z,6.97
2023-11-19T22:57:08.414Z,6.77
2023-11-19T22:59:35.719Z,6.60
2023-11-19T23:02:03.908Z,6.37
2023-11-19T23:04:34.301Z,6.77
2023-11-19T23:07:02.328Z,6.60
2023-11-19T23:09:29.545Z,7.20
2023-11-19T23:11:56.823Z,7.53
2023-11-19T23:14:24.714Z,6.80
2023-11-19T23:16:51.859Z,6.73
2023-11-19T23:19:19.028Z,6.90
2023-11-19T23:21:46.358Z,6.73
2023-11-19T23:24:13.611Z,6.30
2023-11-19T23:26:42.486Z,6.33
2023-11-19T23:29:15.441Z,5.77
2023-11-19T23:31:43.731Z,5.97
2023-11-19T23:34:11.088Z,6.17
2023-11-19T23:36:38.357Z,6.23
2023-11-19T23:39:07.768Z,6.00
2023-11-19T23:41:35.097Z,5.53
2023-11-19T23:44:02.547Z,6.17
2023-11-19T23:46:30.177Z,6.13
2023-11-19T23:48:59.553Z,5.77
2023-11-19T23:51:27.538Z,5.40
2023-11-19T23:53:54.903Z,4.93
2023-11-19T23:56:22.206Z,5.27
2023-11-19T23:58:49.374Z,5.57
